createdAt,value
2023-05-14T00:01:28.168Z,58.60
2023-05-14T00:04:01.182Z,59.15
2023-05-14T00:06:33.096Z,58.94
2023-05-14T00:09:06.330Z,59.30
2023-05-14T00:11:38.094Z,59.60
2023-05-14T00:14:09.846Z,59.63
2023-05-14T00:16:41.624Z,59.49
2023-05-14T00:19:13.671Z,59.89
2023-05-14T00:21:45.776Z,59.45
2023-05-14T00:24:20.341Z,59.74
2023-05-14T00:26:52.037Z,60.24
2023-05-14T00:29:26.250Z,59.95
2023-05-14T00:31:57.974Z,60.17
2023-05-14T00:34:29.713Z,60.58
2023-05-14T00:37:01.961Z,60.66
2023-05-14T00:39:34.176Z,60.46
2023-05-14T00:42:06.243Z,60.42
2023-05-14T00:44:37.963Z,60.65
2023-05-14T00:47:09.830Z,60.28
2023-05-14T00:49:42.537Z,60.49
2023-05-14T00:52:15.449Z,60.23
2023-05-14T00:54:49.104Z,60.50
2023-05-14T00:57:22.063Z,60.47
2023-05-14T00:59:53.960Z,60.56
2023-05-14T01:02:26.474Z,60.82
2023-05-14T01:04:58.511Z,60.58
2023-05-14T01:08:08.184Z,60.95
2023-05-14T01:10:50.579Z,61.21
2023-05-14T01:13:40.889Z,60.85
2023-05-14T01:16:14.511Z,60.54
2023-05-14T01:18:51.066Z,60.58
2023-05-14T01:21:40.856Z,61.44
2023-05-14T01:24:12.684Z,60.77
2023-05-14T01:26:44.623Z,61.58
2023-05-14T01:29:21.557Z,61.31
2023-05-14T01:31:58.724Z,61.32
2023-05-14T01:34:31.366Z,60.97
2023-05-14T01:37:04.616Z,61.59
2023-05-14T01:39:37.970Z,61.11
2023-05-14T01:42:10.957Z,61.38
2023-05-14T01:44:43.351Z,61.81
2023-05-14T01:47:15.057Z,61.86
2023-05-14T01:49:46.786Z,61.74
2023-05-14T01:52:21.067Z,61.79
2023-05-14T01:54:52.924Z,61.75
2023-05-14T01:57:24.617Z,62.10
2023-05-14T01:59:56.489Z,61.96
2023-05-14T02:02:28.243Z,62.18
2023-05-14T02:04:59.987Z,62.40
2023-05-14T02:07:31.843Z,62.40
2023-05-14T02:10:03.929Z,62.23
2023-05-14T02:12:35.749Z,62.22
2023-05-14T02:15:09.078Z,62.60
2023-05-14T02:17:41.164Z,62.96
2023-05-14T02:20:13.309Z,62.98
2023-05-14T02:22:48.389Z,62.92
2023-05-14T02:25:22.954Z,63.07
2023-05-14T02:27:55.676Z,63.60
2023-05-14T02:30:27.473Z,63.56
2023-05-14T02:32:59.346Z,63.34
2023-05-14T02:35:31.140Z,63.24
2023-05-14T02:38:06.633Z,63.79
2023-05-14T02:40:38.432Z,63.79
2023-05-14T02:43:10.481Z,63.78
2023-05-14T02:45:42.279Z,64.09
2023-05-14T02:48:14.219Z,63.77
2023-05-14T02:50:46.908Z,63.86
2023-05-14T02:53:21.830Z,64.39
2023-05-14T02:55:53.620Z,64.61
2023-05-14T02:58:27.701Z,64.41
2023-05-14T03:01:00.452Z,64.76
2023-05-14T03:03:34.318Z,64.62
2023-05-14T03:06:06.722Z,64.33
2023-05-14T03:08:41.732Z,64.86
2023-05-14T03:11:13.534Z,64.85
2023-05-14T03:13:45.296Z,64.83
2023-05-14T03:16:17.096Z,64.67
2023-05-14T03:18:48.896Z,65.04
2023-05-14T03:21:20.849Z,65.00
2023-05-14T03:23:53.833Z,65.31
2023-05-14T03:26:26.527Z,65.48
2023-05-14T03:28:58.280Z,66.21
2023-05-14T03:31:30.130Z,65.70
2023-05-14T03:34:04.941Z,65.93
2023-05-14T03:36:39.944Z,66.24
2023-05-14T03:39:11.948Z,65.78
2023-05-14T03:41:43.691Z,65.80
2023-05-14T03:44:15.696Z,66.00
2023-05-14T03:46:47.394Z,66.10
2023-05-14T03:49:19.230Z,66.33
2023-05-14T03:51:51.255Z,66.78
2023-05-14T03:54:22.996Z,66.71
2023-05-14T03:56:54.756Z,66.60
2023-05-14T03:59:26.514Z,66.71
2023-05-14T04:01:58.874Z,66.59
2023-05-14T04:04:31.196Z,66.87
2023-05-14T04:07:03.003Z,67.04
2023-05-14T04:09:36.809Z,66.99
2023-05-14T04:12:08.936Z,67.12
2023-05-14T04:14:41.179Z,66.51
2023-05-14T04:17:13.039Z,66.88
2023-05-14T04:19:44.883Z,66.91
2023-05-14T04:22:16.660Z,67.00
2023-05-14T04:24:48.388Z,67.50
2023-05-14T04:27:21.609Z,67.14
2023-05-14T04:29:53.324Z,67.38
2023-05-14T04:32:25.719Z,67.41
2023-05-14T04:34:57.519Z,67.36
2023-05-14T04:37:29.326Z,66.74
2023-05-14T04:40:01.164Z,66.82
2023-05-14T04:42:32.885Z,66.69
2023-05-14T04:45:06.755Z,66.81
2023-05-14T04:47:38.580Z,66.57
2023-05-14T04:50:10.499Z,66.64
2023-05-14T04:52:42.300Z,66.78
2023-05-14T04:55:14.030Z,66.77
2023-05-14T04:57:45.762Z,66.83
2023-05-14T05:00:22.700Z,67.44
2023-05-14T05:02:55.083Z,67.36
2023-05-14T05:05:26.989Z,66.99
2023-05-14T05:07:58.744Z,66.68
2023-05-14T05:10:30.519Z,66.88
2023-05-14T05:13:02.290Z,66.69
2023-05-14T05:15:33.991Z,66.96
2023-05-14T05:18:06.420Z,66.48
2023-05-14T05:20:38.194Z,66.49
2023-05-14T05:23:10.079Z,66.54
2023-05-14T05:25:41.918Z,66.29
2023-05-14T05:28:13.673Z,66.08
2023-05-14T05:30:45.504Z,65.55
2023-05-14T05:33:21.350Z,66.34
2023-05-14T05:35:53.158Z,65.98
2023-05-14T05:38:24.909Z,65.77
2023-05-14T05:40:58.204Z,65.52
2023-05-14T05:43:29.971Z,65.28
2023-05-14T05:46:01.801Z,64.95
2023-05-14T05:48:33.570Z,64.99
2023-05-14T05:51:05.294Z,64.38
2023-05-14T05:53:37.077Z,64.20
2023-05-14T05:56:08.765Z,63.78
2023-05-14T05:58:40.517Z,63.96
2023-05-14T06:01:12.218Z,63.79
2023-05-14T06:03:44.847Z,63.56
2023-05-14T06:06:18.186Z,62.97
2023-05-14T06:08:49.911Z,62.31
2023-05-14T06:11:21.889Z,61.46
2023-05-14T06:13:54.109Z,61.04
2023-05-14T06:16:25.926Z,60.97
2023-05-14T06:18:57.856Z,59.99
2023-05-14T06:21:32.474Z,59.64
2023-05-14T06:24:04.251Z,59.86
2023-05-14T06:26:36.116Z,58.14
2023-05-14T06:29:07.874Z,56.12
2023-05-14T06:31:40.167Z,56.33
2023-05-14T06:34:11.968Z,56.12
2023-05-14T06:36:43.704Z,55.68
2023-05-14T06:39:15.596Z,54.28
2023-05-14T06:41:47.405Z,54.66
2023-05-14T06:44:20.015Z,54.54
2023-05-14T06:46:52.101Z,53.87
2023-05-14T06:49:23.871Z,53.78
2023-05-14T06:51:55.745Z,52.69
2023-05-14T06:54:27.548Z,52.14
2023-05-14T06:56:59.314Z,52.05
2023-05-14T06:59:31.160Z,52.20
2023-05-14T07:02:03.287Z,51.85
2023-05-14T07:04:35.164Z,52.04
2023-05-14T07:07:06.928Z,51.46
2023-05-14T07:09:38.664Z,52.42
2023-05-14T07:12:10.477Z,52.63
2023-05-14T07:14:42.299Z,52.87
2023-05-14T07:17:14.071Z,52.29
2023-05-14T07:19:47.246Z,51.95
2023-05-14T07:22:18.924Z,51.64
2023-05-14T07:24:50.751Z,51.71
2023-05-14T07:27:22.496Z,50.88
2023-05-14T07:29:54.203Z,51.01
2023-05-14T07:32:26.035Z,50.70
2023-05-14T07:34:57.793Z,50.33
2023-05-14T07:37:29.556Z,50.20
2023-05-14T07:40:01.285Z,49.73
2023-05-14T07:42:36.465Z,48.65
2023-05-14T07:45:09.911Z,48.81
2023-05-14T07:47:41.841Z,48.84
2023-05-14T07:50:13.631Z,48.80
2023-05-14T07:52:45.762Z,47.57
2023-05-14T07:55:17.538Z,45.06
2023-05-14T07:57:50.279Z,44.21
2023-05-14T08:00:22.263Z,43.82
2023-05-14T08:02:55.624Z,45.13
2023-05-14T08:05:27.468Z,44.96
2023-05-14T08:07:59.227Z,45.60
2023-05-14T08:10:31.454Z,46.16
2023-05-14T08:13:03.354Z,46.66
2023-05-14T08:15:38.132Z,45.67
2023-05-14T08:18:09.990Z,45.31
2023-05-14T08:20:42.115Z,45.68
2023-05-14T08:23:14.181Z,46.13
2023-05-14T08:25:45.965Z,46.22
2023-05-14T08:28:17.696Z,45.59
2023-05-14T08:30:49.439Z,46.16
2023-05-14T08:33:21.371Z,45.48
2023-05-14T08:35:53.345Z,45.31
2023-05-14T08:38:26.270Z,45.51
2023-05-14T08:40:58.813Z,45.37
2023-05-14T08:43:50.496Z,45.43
2023-05-14T08:46:24.670Z,44.96
2023-05-14T08:49:27.972Z,44.31
2023-05-14T08:52:00.568Z,44.41
2023-05-14T08:54:32.730Z,44.19
2023-05-14T08:57:05.894Z,44.55
2023-05-14T08:59:37.895Z,45.16
2023-05-14T09:02:11.893Z,44.96
2023-05-14T09:04:44.332Z,44.93
2023-05-14T09:07:18.893Z,45.49
2023-05-14T09:09:52.235Z,45.54
2023-05-14T09:12:23.984Z,46.20
2023-05-14T09:14:58.507Z,45.78
2023-05-14T09:17:30.348Z,45.38
2023-05-14T09:20:02.442Z,44.62
2023-05-14T09:22:34.920Z,44.69
2023-05-14T09:25:12.057Z,44.95
2023-05-14T09:27:50.341Z,44.42
2023-05-14T09:30:22.215Z,44.60
2023-05-14T09:32:55.108Z,43.64
2023-05-14T09:35:27.103Z,43.49
2023-05-14T09:38:00.350Z,44.43
2023-05-14T09:40:32.154Z,44.83
2023-05-14T09:43:04.132Z,44.20
2023-05-14T09:45:35.812Z,44.39
2023-05-14T09:48:08.490Z,45.03
2023-05-14T09:50:47.081Z,46.08
2023-05-14T09:53:18.963Z,45.36
2023-05-14T09:55:51.033Z,44.51
2023-05-14T09:58:22.815Z,44.00
2023-05-14T10:00:57.343Z,43.72
2023-05-14T10:03:30.674Z,43.48
2023-05-14T10:06:06.655Z,44.32
2023-05-14T10:08:43.612Z,43.25
2023-05-14T10:11:22.362Z,43.33
2023-05-14T10:14:08.083Z,42.16
2023-05-14T10:16:48.307Z,42.67
2023-05-14T10:19:25.294Z,42.81
2023-05-14T10:22:07.401Z,43.36
2023-05-14T10:24:39.423Z,42.37
2023-05-14T10:27:11.284Z,42.20
2023-05-14T10:29:53.940Z,42.60
2023-05-14T10:32:26.547Z,41.90
2023-05-14T10:35:01.734Z,41.67
2023-05-14T10:37:33.481Z,42.32
2023-05-14T10:40:06.638Z,42.79
2023-05-14T10:42:40.916Z,42.42
2023-05-14T10:45:16.262Z,42.21
2023-05-14T10:47:48.898Z,42.27
2023-05-14T10:50:21.070Z,43.00
2023-05-14T10:52:52.843Z,42.85
2023-05-14T10:55:25.526Z,43.71
2023-05-14T10:57:58.947Z,44.27
2023-05-14T11:00:36.304Z,44.48
2023-05-14T11:03:08.350Z,44.33
2023-05-14T11:05:41.122Z,43.95
2023-05-14T11:08:13.758Z,43.71
2023-05-14T11:10:47.176Z,43.82
2023-05-14T11:13:19.833Z,44.04
2023-05-14T11:15:51.814Z,43.54
2023-05-14T11:18:28.931Z,43.75
2023-05-14T11:21:01.357Z,43.63
2023-05-14T11:23:33.220Z,43.02
2023-05-14T11:26:05.025Z,42.66
2023-05-14T11:28:39.956Z,42.65
2023-05-14T11:31:11.805Z,42.60
2023-05-14T11:33:44.391Z,42.26
2023-05-14T11:36:16.200Z,42.65
2023-05-14T11:38:49.012Z,42.28
2023-05-14T11:41:23.081Z,42.05
2023-05-14T11:43:55.303Z,41.93
2023-05-14T11:46:28.599Z,41.69
2023-05-14T11:49:00.387Z,41.11
2023-05-14T11:51:34.088Z,40.31
2023-05-14T11:54:05.866Z,40.05
2023-05-14T11:56:37.606Z,39.83
2023-05-14T11:59:11.423Z,39.91
2023-05-14T12:01:48.045Z,39.20
2023-05-14T12:04:22.899Z,39.08
2023-05-14T12:06:57.797Z,38.86
2023-05-14T12:09:29.623Z,38.89
2023-05-14T12:12:14.235Z,38.58
2023-05-14T12:14:50.295Z,38.28
2023-05-14T12:17:23.036Z,37.49
2023-05-14T12:19:57.659Z,36.56
2023-05-14T12:22:29.965Z,36.65
2023-05-14T12:25:01.957Z,35.97
2023-05-14T12:27:37.058Z,36.14
2023-05-14T12:32:44.116Z,36.32
2023-05-14T12:35:15.896Z,36.38
2023-05-14T12:37:47.812Z,36.54
2023-05-14T12:40:19.592Z,35.89
2023-05-14T12:42:51.364Z,35.59
2023-05-14T12:45:23.493Z,35.61
2023-05-14T12:47:56.021Z,35.33
2023-05-14T12:50:27.813Z,35.90
2023-05-14T12:53:01.084Z,36.23
2023-05-14T12:55:34.348Z,35.48
2023-05-14T12:58:06.158Z,35.58
2023-05-14T13:00:38.375Z,36.58
2023-05-14T13:03:10.204Z,36.58
2023-05-14T13:05:42.166Z,36.35
2023-05-14T13:08:17.865Z,35.73
2023-05-14T13:10:49.821Z,36.62
2023-05-14T13:13:21.983Z,37.21
2023-05-14T13:15:53.815Z,37.45
2023-05-14T13:18:26.730Z,37.15
2023-05-14T13:21:04.267Z,37.19
2023-05-14T13:23:36.085Z,36.97
2023-05-14T13:26:07.870Z,37.25
2023-05-14T13:28:43.075Z,37.61
2023-05-14T13:31:15.947Z,37.76
2023-05-14T13:33:47.804Z,37.73
2023-05-14T13:36:19.714Z,37.79
2023-05-14T13:38:51.428Z,38.31
2023-05-14T13:41:23.171Z,38.39
2023-05-14T13:43:54.925Z,38.36
2023-05-14T13:46:27.017Z,38.19
2023-05-14T13:49:01.855Z,38.61
2023-05-14T13:51:33.600Z,38.88
2023-05-14T13:54:05.603Z,38.99
2023-05-14T13:56:37.435Z,39.37
2023-05-14T13:59:12.241Z,40.02
2023-05-14T14:01:44.078Z,40.03
2023-05-14T14:04:16.539Z,40.62
2023-05-14T14:06:49.092Z,41.67
2023-05-14T14:09:23.998Z,41.50
2023-05-14T14:11:55.839Z,42.07
2023-05-14T14:14:28.119Z,42.47
2023-05-14T14:17:01.139Z,42.75
2023-05-14T14:19:40.459Z,42.74
2023-05-14T14:22:14.032Z,43.17
2023-05-14T14:24:45.871Z,43.36
2023-05-14T14:27:17.730Z,43.63
2023-05-14T14:29:49.581Z,43.84
2023-05-14T14:32:22.426Z,43.46
2023-05-14T14:34:54.365Z,42.86
2023-05-14T14:37:26.170Z,42.82
2023-05-14T14:39:57.916Z,43.15
2023-05-14T14:42:29.730Z,43.68
2023-05-14T14:45:01.517Z,43.79
2023-05-14T14:47:33.748Z,43.95
2023-05-14T14:50:06.559Z,44.23
2023-05-14T14:52:39.991Z,44.25
2023-05-14T14:55:11.723Z,44.68
2023-05-14T14:57:43.590Z,45.10
2023-05-14T15:00:15.904Z,45.75
2023-05-14T15:02:47.769Z,46.34
2023-05-14T15:05:19.735Z,46.75
2023-05-14T15:07:51.454Z,46.77
2023-05-14T15:10:23.497Z,47.13
2023-05-14T15:12:58.882Z,47.93
2023-05-14T15:15:31.932Z,47.91
2023-05-14T15:18:04.515Z,48.60
2023-05-14T15:20:36.364Z,49.34
2023-05-14T15:23:08.234Z,49.73
2023-05-14T15:25:40.135Z,49.85
2023-05-14T15:28:12.175Z,49.88
2023-05-14T15:30:44.034Z,50.46
2023-05-14T15:33:19.300Z,50.39
2023-05-14T15:35:51.403Z,51.01
2023-05-14T15:38:23.345Z,50.85
2023-05-14T15:40:55.183Z,51.10
2023-05-14T15:43:27.328Z,52.23
2023-05-14T15:46:00.661Z,52.29
2023-05-14T15:48:32.554Z,52.60
2023-05-14T15:51:04.466Z,52.84
2023-05-14T15:53:36.208Z,52.54
2023-05-14T15:56:08.148Z,53.10
2023-05-14T15:58:39.964Z,53.13
2023-05-14T16:01:11.746Z,53.52
2023-05-14T16:03:44.602Z,54.04
2023-05-14T16:06:16.532Z,54.90
2023-05-14T16:08:49.309Z,55.51
2023-05-14T16:11:24.147Z,55.12
2023-05-14T16:13:56.449Z,55.08
2023-05-14T16:16:28.369Z,55.00
2023-05-14T16:19:00.244Z,55.86
2023-05-14T16:21:34.399Z,56.36
2023-05-14T16:24:07.979Z,56.63
2023-05-14T16:26:40.247Z,56.60
2023-05-14T16:29:12.237Z,56.03
2023-05-14T16:31:44.061Z,55.94
2023-05-14T16:34:16.212Z,56.25
2023-05-14T16:36:48.218Z,56.18
2023-05-14T16:39:20.033Z,55.95
2023-05-14T16:41:51.841Z,56.62
2023-05-14T16:44:23.600Z,58.17
2023-05-14T16:46:56.371Z,58.03
2023-05-14T16:49:28.253Z,58.19
2023-05-14T16:52:00.234Z,58.87
2023-05-14T16:54:32.084Z,58.38
2023-05-14T16:57:05.089Z,59.06
2023-05-14T16:59:37.075Z,60.05
2023-05-14T17:02:09.033Z,59.78
2023-05-14T17:04:42.289Z,60.04
2023-05-14T17:07:14.583Z,60.71
2023-05-14T17:09:46.363Z,60.69
2023-05-14T17:12:18.137Z,61.66
2023-05-14T17:14:49.844Z,61.13
2023-05-14T17:17:24.724Z,62.29
2023-05-14T17:19:56.555Z,62.94
2023-05-14T17:22:28.288Z,62.83
2023-05-14T17:25:00.191Z,62.79
2023-05-14T17:27:33.419Z,62.35
2023-05-14T17:30:06.215Z,63.00
2023-05-14T17:32:38.104Z,62.82
2023-05-14T17:35:10.447Z,62.78
2023-05-14T17:37:43.167Z,63.09
2023-05-14T17:40:14.898Z,64.26
2023-05-14T17:42:46.777Z,63.94
2023-05-14T17:45:20.841Z,63.97
2023-05-14T17:47:52.883Z,64.73
2023-05-14T17:50:24.694Z,64.31
2023-05-14T17:52:56.874Z,65.37
2023-05-14T17:55:28.816Z,65.43
2023-05-14T17:58:00.610Z,65.50
2023-05-14T18:00:32.460Z,65.13
2023-05-14T18:03:04.652Z,66.24
2023-05-14T18:05:37.240Z,66.11
2023-05-14T18:08:09.771Z,67.03
2023-05-14T18:10:41.661Z,66.81
2023-05-14T18:13:13.499Z,66.47
2023-05-14T18:15:45.378Z,66.54
2023-05-14T18:18:21.551Z,66.79
2023-05-14T18:20:53.319Z,66.72
2023-05-14T18:23:25.175Z,67.04
2023-05-14T18:25:59.678Z,67.11
2023-05-14T18:28:32.732Z,67.17
2023-05-14T18:31:04.488Z,67.17
2023-05-14T18:33:36.293Z,67.92
2023-05-14T18:36:08.216Z,68.28
2023-05-14T18:38:43.023Z,69.07
2023-05-14T18:41:14.893Z,68.39
2023-05-14T18:43:46.668Z,68.30
2023-05-14T18:46:18.415Z,68.69
2023-05-14T18:48:50.884Z,68.38
2023-05-14T18:51:22.632Z,68.55
2023-05-14T18:53:54.757Z,68.21
2023-05-14T18:56:26.526Z,68.86
2023-05-14T18:58:58.259Z,68.87
2023-05-14T19:01:30.068Z,69.36
2023-05-14T19:04:04.583Z,69.77
2023-05-14T19:06:38.483Z,69.55
2023-05-14T19:09:10.928Z,70.13
2023-05-14T19:11:42.670Z,70.29
2023-05-14T19:14:14.434Z,70.63
2023-05-14T19:16:46.204Z,70.85
2023-05-14T19:19:18.030Z,70.67
2023-05-14T19:21:49.783Z,71.36
2023-05-14T19:24:21.539Z,71.63
2023-05-14T19:26:53.395Z,72.22
2023-05-14T19:29:25.288Z,72.07
2023-05-14T19:31:57.050Z,72.16
2023-05-14T19:34:28.752Z,72.27
2023-05-14T19:37:00.762Z,73.12
2023-05-14T19:39:32.537Z,73.14
2023-05-14T19:42:04.566Z,72.61
2023-05-14T19:44:36.386Z,72.53
2023-05-14T19:47:08.186Z,72.53
2023-05-14T19:49:40.468Z,72.39
2023-05-14T19:52:12.323Z,72.83
2023-05-14T19:54:47.313Z,73.04
2023-05-14T19:57:19.070Z,72.84
2023-05-14T19:59:50.952Z,72.38
2023-05-14T20:02:22.808Z,72.91
2023-05-14T20:04:56.719Z,72.93
2023-05-14T20:07:29.409Z,73.83
2023-05-14T20:10:01.660Z,73.93
2023-05-14T20:12:33.628Z,73.14
2023-05-14T20:15:06.053Z,73.69
2023-05-14T20:17:43.690Z,73.74
2023-05-14T20:20:16.697Z,72.99
2023-05-14T20:22:48.441Z,72.92
2023-05-14T20:25:20.219Z,72.93
2023-05-14T20:27:53.613Z,73.05
2023-05-14T20:30:25.606Z,72.82
2023-05-14T20:32:57.711Z,73.05
2023-05-14T20:35:29.503Z,72.60
2023-05-14T20:38:02.210Z,72.45
2023-05-14T20:40:34.086Z,72.46
2023-05-14T20:43:06.009Z,72.63
2023-05-14T20:45:38.068Z,72.38
2023-05-14T20:48:12.131Z,72.00
2023-05-14T20:50:44.306Z,72.19
2023-05-14T20:53:16.137Z,72.49
2023-05-14T20:55:47.959Z,73.17
2023-05-14T20:58:20.438Z,72.56
2023-05-14T21:00:52.168Z,73.44
2023-05-14T21:03:23.983Z,73.32
2023-05-14T21:05:56.944Z,73.38
2023-05-14T21:08:29.459Z,74.12
2023-05-14T21:11:01.236Z,74.38
2023-05-14T21:13:33.023Z,74.34
2023-05-14T21:16:05.126Z,73.84
2023-05-14T21:18:36.887Z,74.49
2023-05-14T21:21:08.617Z,74.96
2023-05-14T21:23:40.412Z,74.64
2023-05-14T21:26:12.167Z,74.79
2023-05-14T21:28:46.061Z,75.00
2023-05-14T21:31:17.840Z,75.54
2023-05-14T21:33:49.555Z,75.53
2023-05-14T21:36:21.575Z,75.40
2023-05-14T21:38:53.937Z,75.59
2023-05-14T21:41:25.836Z,75.16
2023-05-14T21:43:57.544Z,75.50
2023-05-14T21:46:31.932Z,75.29
2023-05-14T21:49:03.726Z,75.23
2023-05-14T21:51:35.970Z,76.05
2023-05-14T21:54:07.837Z,76.93
2023-05-14T21:56:39.595Z,76.60
2023-05-14T21:59:11.333Z,76.61
2023-05-14T22:04:17.854Z,77.86
2023-05-14T22:06:49.638Z,77.79
2023-05-14T22:09:21.359Z,76.99
2023-05-14T22:11:53.115Z,77.09
2023-05-14T22:14:26.530Z,77.54
2023-05-14T22:16:58.551Z,77.89
2023-05-14T22:19:31.026Z,77.82
2023-05-14T22:22:02.721Z,78.45
2023-05-14T22:24:34.464Z,78.62
2023-05-14T22:27:06.278Z,78.42
2023-05-14T22:29:38.433Z,78.31
2023-05-14T22:32:10.407Z,77.81
2023-05-14T22:34:42.240Z,78.08
2023-05-14T22:37:14.050Z,78.03
2023-05-14T22:39:45.845Z,78.47
2023-05-14T22:42:17.771Z,78.15
2023-05-14T22:44:49.561Z,78.53
2023-05-14T22:47:21.471Z,78.50
2023-05-14T22:49:53.218Z,78.19
2023-05-14T22:52:26.147Z,79.04
2023-05-14T22:54:58.134Z,78.89
2023-05-14T22:57:30.094Z,78.23
2023-05-14T23:00:02.246Z,79.75
2023-05-14T23:02:34.304Z,79.25
2023-05-14T23:05:08.007Z,80.07
2023-05-14T23:07:39.885Z,79.88
2023-05-14T23:10:11.864Z,79.86
2023-05-14T23:12:43.740Z,79.71
2023-05-14T23:15:15.726Z,79.50
2023-05-14T23:17:47.633Z,79.69
2023-05-14T23:20:19.445Z,79.96
2023-05-14T23:22:51.315Z,80.02
2023-05-14T23:25:23.211Z,80.53
2023-05-14T23:27:55.300Z,80.27
2023-05-14T23:30:27.137Z,80.51
2023-05-14T23:32:59.033Z,80.42
2023-05-14T23:35:30.882Z,80.21
2023-05-14T23:38:03.757Z,81.00
2023-05-14T23:40:35.586Z,80.17
2023-05-14T23:43:07.402Z,81.55
2023-05-14T23:45:39.345Z,81.45
2023-05-14T23:48:11.374Z,81.48
2023-05-14T23:50:43.984Z,81.29
2023-05-14T23:53:15.828Z,81.69
2023-05-14T23:55:47.692Z,81.33
2023-05-14T23:58:20.136Z,81.91
